Time;durP1;ratioP1;P1;durP2;ratioP2;P2;SDS_P1;SDS_P2;PMS_P1;PMS_P2;Temp;Humidity;BMP_temperature;BMP_pressure;BME280_temperature;BME280_humidity;BME280_pressure;Samples;Min_cycle;Max_cycle;Signal;HPM_P1;HPM_P2
2023/02/04 00:00:19;;;;;;;17.10;8.40;;;;;;;0.77;100.00;97539.79;106530;1281;138182;-73
2023/02/04 00:03:05;;;;;;;17.30;8.70;;;;;;;0.78;100.00;97532.73;106566;1281;22651;-72
2023/02/04 00:05:33;;;;;;;18.80;8.40;;;;;;;0.78;100.00;97531.11;106581;1281;138698;-73
2023/02/04 00:07:59;;;;;;;20.00;9.90;;;;;;;0.79;100.00;97528.15;106614;1265;25039;-73
2023/02/04 00:10:26;;;;;;;15.80;8.50;;;;;;;0.80;100.00;97526.91;106561;1282;22562;-73
2023/02/04 00:12:53;;;;;;;14.20;8.50;;;;;;;0.82;100.00;97522.88;106530;1278;138769;-72
2023/02/04 00:15:20;;;;;;;12.40;7.70;;;;;;;0.83;100.00;97523.78;106601;1282;24227;-72
2023/02/04 00:17:47;;;;;;;17.10;8.10;;;;;;;0.86;100.00;97518.47;106492;1266;138262;-73
2023/02/04 00:20:14;;;;;;;18.50;7.10;;;;;;;0.88;100.00;97516.77;106630;1281;25265;-73
2023/02/04 00:22:41;;;;;;;13.10;6.70;;;;;;;0.90;100.00;97517.48;106618;1280;23399;-73
2023/02/04 00:25:08;;;;;;;12.20;5.80;;;;;;;0.93;100.00;97516.91;106778;1275;138617;-72
2023/02/04 00:27:35;;;;;;;10.20;6.00;;;;;;;0.98;100.00;97516.90;106522;1260;22784;-73
2023/02/04 00:30:05;;;;;;;14.20;6.20;;;;;;;1.00;100.00;97513.34;106331;1284;138628;-73
2023/02/04 00:32:32;;;;;;;12.70;5.80;;;;;;;1.03;100.00;97514.50;106942;1284;22648;-72
2023/02/04 00:35:00;;;;;;;11.50;5.30;;;;;;;1.07;100.00;97515.20;106545;1284;24461;-72
2023/02/04 00:37:27;;;;;;;12.10;5.10;;;;;;;1.10;100.00;97519.27;106347;1284;22553;-72
2023/02/04 00:39:54;;;;;;;15.90;6.30;;;;;;;1.13;100.00;97517.09;106443;1265;22549;-72
2023/02/04 00:42:21;;;;;;;12.60;5.80;;;;;;;1.15;100.00;97512.05;106350;1283;139102;-72
2023/02/04 00:44:48;;;;;;;9.70;5.20;;;;;;;1.17;100.00;97512.99;106568;1284;25513;-72
2023/02/04 00:47:15;;;;;;;15.30;5.40;;;;;;;1.19;100.00;97518.27;106454;1283;138814;-72
2023/02/04 00:49:42;;;;;;;8.60;4.20;;;;;;;1.21;100.00;97514.07;107813;1264;22845;-72
2023/02/04 00:52:09;;;;;;;7.60;4.60;;;;;;;1.23;100.00;97512.59;106318;1283;22615;-72
2023/02/04 00:54:36;;;;;;;12.00;5.10;;;;;;;1.25;100.00;97504.13;106261;1284;138325;-72
2023/02/04 00:57:03;;;;;;;8.40;4.70;;;;;;;1.26;100.00;97498.96;106454;1283;24432;-72
2023/02/04 00:59:30;;;;;;;10.10;4.80;;;;;;;1.28;100.00;97496.89;106532;1264;140068;-72
2023/02/04 01:01:57;;;;;;;9.40;4.60;;;;;;;1.29;100.00;97497.13;106627;1281;25223;-72
2023/02/04 01:04:25;;;;;;;6.80;3.60;;;;;;;1.29;100.00;97494.54;106648;1282;25261;-72
2023/02/04 01:06:52;;;;;;;8.40;3.80;;;;;;;1.31;100.00;97495.56;106382;1282;138407;-72
2023/02/04 01:09:18;;;;;;;7.20;3.70;;;;;;;1.32;100.00;97493.59;106375;1267;22771;-72
2023/02/04 01:11:45;;;;;;;7.40;3.50;;;;;;;1.33;100.00;97489.75;106258;1281;138417;-72
2023/02/04 01:14:13;;;;;;;6.60;3.70;;;;;;;1.33;100.00;97484.55;106385;1284;25138;-72
2023/02/04 01:16:40;;;;;;;6.20;3.20;;;;;;;1.32;100.00;97486.60;106374;1283;22551;-72
2023/02/04 01:19:07;;;;;;;8.00;3.60;;;;;;;1.32;100.00;97479.67;106310;1262;137788;-72
2023/02/04 01:21:34;;;;;;;7.60;3.50;;;;;;;1.31;100.00;97474.28;106501;1281;25482;-72
2023/02/04 01:24:02;;;;;;;10.40;4.80;;;;;;;1.29;100.00;97471.11;106411;1282;138282;-72
2023/02/04 01:26:29;;;;;;;6.50;3.50;;;;;;;1.28;100.00;97473.13;106609;1278;24248;-72
2023/02/04 01:28:56;;;;;;;7.50;3.40;;;;;;;1.26;100.00;97470.13;106498;1259;22692;-72
2023/02/04 01:31:25;;;;;;;6.40;3.30;;;;;;;1.24;100.00;97473.52;106361;1282;137825;-72
2023/02/04 01:33:52;;;;;;;7.40;3.50;;;;;;;1.23;100.00;97462.75;106401;1282;22533;-72
2023/02/04 01:36:20;;;;;;;6.20;3.60;;;;;;;1.20;100.00;97462.34;106293;1279;137873;-72
2023/02/04 01:38:48;;;;;;;6.30;3.20;;;;;;;1.19;100.00;97464.61;106368;1281;24032;-72
2023/02/04 01:41:17;;;;;;;10.50;3.30;;;;;;;1.18;100.00;97463.58;106377;1265;138230;-72
2023/02/04 01:43:47;;;;;;;7.20;3.10;;;;;;;1.17;100.00;97465.19;106541;1281;22541;-72
2023/02/04 01:46:15;;;;;;;5.60;3.10;;;;;;;1.16;100.00;97463.71;106589;1279;23971;-72
2023/02/04 01:48:43;;;;;;;5.00;2.70;;;;;;;1.14;100.00;97469.36;106392;1281;137984;-72
2023/02/04 01:51:14;;;;;;;6.10;3.30;;;;;;;1.12;100.00;97468.05;106436;1265;23086;-71
2023/02/04 01:53:42;;;;;;;4.90;2.60;;;;;;;1.11;100.00;97465.31;106341;1283;138192;-72
2023/02/04 01:56:21;;;;;;;5.50;2.80;;;;;;;1.10;100.00;97468.23;106683;1268;25210;-71
2023/02/04 01:58:52;;;;;;;4.50;2.70;;;;;;;1.09;100.00;97466.52;106629;1282;22664;-72
2023/02/04 02:01:43;;;;;;;6.40;2.90;;;;;;;1.08;100.00;97471.73;106499;1282;138075;-71
2023/02/04 02:04:14;;;;;;;5.70;3.00;;;;;;;1.08;100.00;97474.56;106582;1272;26118;-71
2023/02/04 02:07:08;;;;;;;5.40;2.70;;;;;;;1.07;100.00;97473.84;106313;1280;137910;-71
2023/02/04 02:09:36;;;;;;;4.30;2.70;;;;;;;1.05;100.00;97475.23;106423;1263;23405;-71
2023/02/04 02:12:06;;;;;;;7.60;3.40;;;;;;;1.04;100.00;97476.55;106376;1282;138208;-71
2023/02/04 02:14:33;;;;;;;4.50;3.00;;;;;;;1.03;100.00;97473.52;106355;1282;25165;-71
2023/02/04 02:17:00;;;;;;;4.10;2.80;;;;;;;1.01;100.00;97476.56;106488;1282;23513;-71
2023/02/04 02:19:35;;;;;;;6.40;2.80;;;;;;;1.00;100.00;97477.39;106368;1282;25301;-71
2023/02/04 02:22:09;;;;;;;5.50;3.20;;;;;;;0.99;100.00;97483.98;107300;1263;24233;-72
2023/02/04 02:24:37;;;;;;;6.40;3.30;;;;;;;0.98;100.00;97483.20;107114;1281;138007;-71
2023/02/04 02:27:07;;;;;;;4.30;3.00;;;;;;;0.98;100.00;97489.02;106474;1278;22531;-71
2023/02/04 02:29:37;;;;;;;4.20;2.30;;;;;;;0.98;100.00;97491.60;106849;1275;139375;-72
2023/02/04 02:32:04;;;;;;;4.40;2.50;;;;;;;0.98;100.00;97488.39;106499;1281;22531;-71
2023/02/04 02:34:33;;;;;;;2.50;1.50;;;;;;;0.99;100.00;97485.80;106636;1276;22995;-71
2023/02/04 02:37:03;;;;;;;3.30;1.60;;;;;;;1.00;100.00;97494.25;106790;1281;137877;-71
2023/02/04 02:39:30;;;;;;;2.80;1.40;;;;;;;0.99;100.00;97492.73;106553;1276;25078;-71
2023/02/04 02:41:59;;;;;;;2.70;1.40;;;;;;;1.00;100.00;97494.08;106932;1263;137860;-71
2023/02/04 02:44:28;;;;;;;3.90;1.70;;;;;;;1.00;100.00;97507.25;107234;1274;22594;-72
2023/02/04 02:46:57;;;;;;;3.50;1.40;;;;;;;1.00;100.00;97505.88;108368;1274;22788;-72
2023/02/04 02:49:27;;;;;;;3.10;1.20;;;;;;;1.00;100.00;97497.35;107399;1275;138029;-72
2023/02/04 02:51:53;;;;;;;2.90;1.40;;;;;;;0.99;100.00;97507.28;106528;1266;22540;-71
2023/02/04 02:54:28;;;;;;;2.90;1.20;;;;;;;0.98;100.00;97509.14;106570;1275;137895;-71
2023/02/04 02:56:58;;;;;;;2.70;1.10;;;;;;;0.98;100.00;97517.60;106555;1282;22538;-71
2023/02/04 02:59:26;;;;;;;4.40;1.30;;;;;;;0.96;100.00;97520.98;106755;1280;138251;-72
2023/02/04 03:02:02;;;;;;;1.80;1.00;;;;;;;0.94;100.00;97527.54;106939;1265;22582;-72
2023/02/04 03:04:36;;;;;;;1.90;0.90;;;;;;;0.92;100.00;97528.48;106701;1276;22568;-72
2023/02/04 03:07:04;;;;;;;1.40;1.00;;;;;;;0.90;100.00;97532.53;106475;1280;139729;-71
2023/02/04 03:09:32;;;;;;;1.10;1.00;;;;;;;0.88;100.00;97542.13;106481;1281;22716;-71
2023/02/04 03:11:59;;;;;;;1.50;1.20;;;;;;;0.85;100.00;97554.25;106393;1262;139267;-71
2023/02/04 03:14:27;;;;;;;1.60;1.30;;;;;;;0.83;100.00;97554.20;106531;1281;24187;-71
2023/02/04 03:16:55;;;;;;;1.70;1.40;;;;;;;0.81;100.00;97558.21;106778;1281;24248;-71
2023/02/04 03:19:25;;;;;;;2.00;0.90;;;;;;;0.79;100.00;97561.92;106633;1274;137971;-72
2023/02/04 03:21:55;;;;;;;1.20;1.00;;;;;;;0.76;100.00;97563.14;106534;1265;22416;-71
2023/02/04 03:24:23;;;;;;;1.40;1.10;;;;;;;0.73;100.00;97560.35;106585;1281;139792;-71
2023/02/04 03:26:51;;;;;;;2.90;0.90;;;;;;;0.71;100.00;97563.80;106377;1260;23349;-71
2023/02/04 03:29:18;;;;;;;1.90;1.20;;;;;;;0.69;100.00;97571.77;106715;1277;138083;-72
2023/02/04 03:31:45;;;;;;;2.70;1.20;;;;;;;0.67;100.00;97576.66;108300;1266;23534;-71
2023/02/04 03:34:12;;;;;;;2.40;1.30;;;;;;;0.64;100.00;97583.17;106602;1279;22548;-71
2023/02/04 03:36:39;;;;;;;0.80;0.80;;;;;;;0.62;100.00;97588.52;106448;1282;139730;-71
2023/02/04 03:39:06;;;;;;;0.80;0.70;;;;;;;0.59;100.00;97601.75;106644;1278;24177;-71
2023/02/04 03:41:33;;;;;;;0.70;0.60;;;;;;;0.55;100.00;97609.31;106406;1282;139212;-71
2023/02/04 03:44:00;;;;;;;0.70;0.70;;;;;;;0.52;100.00;97616.56;106350;1283;22547;-71
2023/02/04 03:46:27;;;;;;;1.70;0.60;;;;;;;0.49;100.00;97625.91;106526;1282;22544;-71
2023/02/04 03:48:54;;;;;;;0.90;0.80;;;;;;;0.46;100.00;97633.96;106252;1281;138359;-71
2023/02/04 03:51:21;;;;;;;0.70;0.70;;;;;;;0.43;100.00;97638.12;106343;1282;23949;-70
2023/02/04 03:53:48;;;;;;;1.10;0.60;;;;;;;0.39;100.00;97645.23;106435;1263;137834;-71
2023/02/04 03:56:15;;;;;;;1.40;0.60;;;;;;;0.36;100.00;97653.45;106481;1282;22563;-71
2023/02/04 03:58:43;;;;;;;0.60;0.60;;;;;;;0.34;100.00;97653.26;106503;1282;22572;-71
2023/02/04 04:01:10;;;;;;;0.50;0.50;;;;;;;0.33;100.00;97662.92;106377;1272;140183;-71
2023/02/04 04:03:37;;;;;;;0.60;0.60;;;;;;;0.30;100.00;97675.39;106455;1265;24421;-71
2023/02/04 04:06:06;;;;;;;0.60;0.60;;;;;;;0.28;100.00;97681.35;106250;1282;138223;-71
2023/02/04 04:08:33;;;;;;;;;;;;;;;0.25;100.00;97692.19;106522;1282;25197;-71
2023/02/04 04:11:02;;;;;;;1.60;0.60;;;;;;;0.23;100.00;97701.98;106460;1283;23350;-71
2023/02/04 04:13:29;;;;;;;0.30;0.30;;;;;;;0.20;100.00;97713.49;106480;1282;24029;-71
2023/02/04 04:15:56;;;;;;;1.00;0.70;;;;;;;0.18;100.00;97727.13;106455;1282;22651;-71
2023/02/04 04:18:23;;;;;;;0.80;0.50;;;;;;;0.14;100.00;97737.47;106070;1265;456285;-71
2023/02/04 04:20:50;;;;;;;1.20;0.80;;;;;;;0.08;100.00;97753.61;106531;1281;25513;-71
2023/02/04 04:23:17;;;;;;;1.40;1.30;;;;;;;0.01;100.00;97765.17;106341;1271;138157;-71
2023/02/04 04:25:44;;;;;;;2.60;2.20;;;;;;;-0.06;100.00;97772.32;106435;1269;25485;-71
2023/02/04 04:28:11;;;;;;;2.70;2.20;;;;;;;-0.13;100.00;97783.52;106638;1283;22544;-71
2023/02/04 04:30:38;;;;;;;4.20;2.70;;;;;;;-0.18;100.00;97801.83;106234;1284;138015;-71
2023/02/04 04:33:05;;;;;;;6.20;3.50;;;;;;;-0.27;100.00;97803.98;106507;1262;22625;-71
2023/02/04 04:35:33;;;;;;;6.90;4.10;;;;;;;-0.37;100.00;97818.98;106399;1281;138606;-71
2023/02/04 04:38:01;;;;;;;6.70;5.00;;;;;;;-0.44;100.00;97830.73;106570;1281;22725;-71
2023/02/04 04:40:28;;;;;;;9.00;5.30;;;;;;;-0.52;100.00;97843.52;106497;1281;25310;-71
2023/02/04 04:42:55;;;;;;;9.70;6.10;;;;;;;-0.61;100.00;97858.36;106485;1260;138734;-71
2023/02/04 04:45:22;;;;;;;8.20;5.20;;;;;;;-0.67;100.00;97869.43;106335;1282;22548;-71
2023/02/04 04:47:49;;;;;;;11.40;5.20;;;;;;;-0.73;100.00;97884.62;106187;1282;139717;-71
2023/02/04 04:50:16;;;;;;;8.30;5.70;;;;;;;-0.78;100.00;97892.80;106478;1283;22548;-71
2023/02/04 04:52:43;;;;;;;8.80;5.00;;;;;;;-0.81;100.00;97914.56;106476;1282;24478;-71
2023/02/04 04:55:10;;;;;;;8.80;5.50;;;;;;;-0.85;100.00;97934.20;106434;1282;138130;-71
2023/02/04 04:57:37;;;;;;;8.70;5.30;;;;;;;-0.90;100.00;97940.29;106477;1283;25339;-71
2023/02/04 05:00:06;;;;;;;8.10;5.30;;;;;;;-0.99;100.00;97951.77;106281;1275;139354;-71
2023/02/04 05:02:33;;;;;;;7.50;4.80;;;;;;;-1.07;100.00;97976.35;106546;1284;22544;-71
2023/02/04 05:05:00;;;;;;;9.10;5.30;;;;;;;-1.18;100.00;97989.47;106499;1265;22560;-71
2023/02/04 05:07:27;;;;;;;8.40;4.60;;;;;;;-1.24;100.00;98013.01;106376;1284;23802;-71
2023/02/04 05:09:54;;;;;;;7.40;4.60;;;;;;;-1.31;100.00;98022.95;106337;1283;22544;-71
2023/02/04 05:12:21;;;;;;;6.60;4.70;;;;;;;-1.38;100.00;98032.65;106203;1285;138574;-71
2023/02/04 05:14:48;;;;;;;7.50;4.00;;;;;;;-1.44;100.00;98047.59;106475;1268;22641;-71
2023/02/04 05:17:15;;;;;;;5.40;3.90;;;;;;;-1.50;100.00;98062.14;106219;1284;138256;-71
2023/02/04 05:19:42;;;;;;;7.40;4.50;;;;;;;-1.53;100.00;98085.00;106368;1284;22531;-71
2023/02/04 05:22:09;;;;;;;5.90;3.50;;;;;;;-1.58;100.00;98097.26;106358;1284;25350;-70
2023/02/04 05:24:36;;;;;;;5.70;3.70;;;;;;;-1.63;100.00;98107.43;106182;1285;138813;-71
2023/02/04 05:27:03;;;;;;;5.90;4.00;;;;;;;-1.66;100.00;98123.64;106550;1284;22540;-71
2023/02/04 05:29:30;;;;;;;4.10;3.30;;;;;;;-1.72;100.00;98137.07;106229;1285;138921;-71
2023/02/04 05:31:57;;;;;;;4.80;3.10;;;;;;;-1.76;100.00;98160.69;106321;1285;23008;-71
2023/02/04 05:34:24;;;;;;;6.30;3.80;;;;;;;-1.80;100.00;98169.54;106419;1266;25367;-71
2023/02/04 05:36:51;;;;;;;6.00;3.70;;;;;;;-1.85;100.00;98186.64;106421;1283;139835;-71
2023/02/04 05:39:18;;;;;;;4.70;3.60;;;;;;;-1.89;100.00;98202.73;106510;1284;22538;-73
2023/02/04 05:41:45;;;;;;;6.10;3.70;;;;;;;-1.93;100.00;98218.25;106311;1284;138800;-73
2023/02/04 05:44:12;;;;;;;4.00;3.00;;;;;;;-1.97;100.00;98234.61;106291;1263;22576;-70
2023/02/04 05:46:39;;;;;;;5.00;3.40;;;;;;;-2.01;100.00;98248.14;106284;1284;23937;-70
2023/02/04 05:49:07;;;;;;;5.90;3.60;;;;;;;-2.02;100.00;98262.59;106259;1284;138906;-70
2023/02/04 05:51:34;;;;;;;4.60;3.10;;;;;;;-2.04;100.00;98270.73;106380;1284;24065;-70
2023/02/04 05:54:01;;;;;;;4.90;3.30;;;;;;;-2.04;100.00;98280.21;106155;1284;140757;-70
2023/02/04 05:56:27;;;;;;;5.40;3.60;;;;;;;-2.05;100.00;98295.83;106333;1275;22544;-70
2023/02/04 05:58:55;;;;;;;5.10;3.20;;;;;;;-2.07;100.00;98308.50;106564;1283;22618;-70
2023/02/04 06:01:22;;;;;;;5.70;3.00;;;;;;;-2.08;100.00;98319.61;106238;1284;138510;-70
2023/02/04 06:03:49;;;;;;;4.30;3.30;;;;;;;-2.09;100.00;98332.85;106507;1281;22533;-70
2023/02/04 06:06:16;;;;;;;5.90;3.40;;;;;;;-2.11;100.00;98348.83;106493;1264;138525;-70
2023/02/04 06:08:43;;;;;;;4.40;3.20;;;;;;;-2.11;100.00;98370.04;106503;1282;22530;-71
2023/02/04 06:11:10;;;;;;;4.50;3.00;;;;;;;-2.12;100.00;98388.08;106443;1282;139212;-71
2023/02/04 06:13:40;;;;;;;4.20;3.10;;;;;;;-2.12;100.00;98405.52;106557;1282;24353;-70
2023/02/04 06:16:07;;;;;;;6.20;3.40;;;;;;;-2.13;100.00;98422.85;106638;1263;24422;-70
2023/02/04 06:18:34;;;;;;;4.30;3.60;;;;;;;-2.13;100.00;98443.56;106455;1281;138144;-70
2023/02/04 06:21:03;;;;;;;8.10;3.80;;;;;;;-2.15;100.00;98458.36;106594;1281;24435;-70
2023/02/04 06:23:33;;;;;;;3.80;3.00;;;;;;;-2.15;100.00;98475.06;106417;1264;138803;-71
2023/02/04 06:26:00;;;;;;;;;;;;;;;-2.17;100.00;98480.77;106439;1266;25610;-71
2023/02/04 06:28:28;;;;;;;4.30;3.30;;;;;;;-2.19;100.00;98493.48;106401;1276;22546;-70
2023/02/04 06:30:55;;;;;;;5.60;3.50;;;;;;;-2.20;99.75;98513.50;106201;1284;138018;-71
2023/02/04 06:33:22;;;;;;;5.70;2.80;;;;;;;-2.21;99.09;98532.23;106406;1284;25294;-70
2023/02/04 06:35:50;;;;;;;12.70;4.40;;;;;;;-2.22;98.47;98542.88;106772;1263;139788;-71
2023/02/04 06:38:17;;;;;;;4.30;3.20;;;;;;;-2.22;98.28;98552.77;106639;1281;25457;-71
2023/02/04 06:40:48;;;;;;;4.70;2.80;;;;;;;-2.22;97.64;98570.55;106675;1281;23049;-70
2023/02/04 06:43:15;;;;;;;3.40;2.90;;;;;;;-2.20;97.42;98585.30;106424;1281;137824;-71
2023/02/04 06:45:42;;;;;;;3.90;2.50;;;;;;;-2.19;96.70;98595.38;106401;1267;24067;-71
2023/02/04 06:48:09;;;;;;;5.10;3.20;;;;;;;-2.18;95.36;98614.98;106344;1282;137935;-71
2023/02/04 06:50:36;;;;;;;3.50;2.50;;;;;;;-2.16;94.18;98627.96;106528;1282;25353;-71
2023/02/04 06:53:03;;;;;;;5.60;2.70;;;;;;;-2.16;94.36;98636.80;106324;1276;139900;-72
2023/02/04 06:55:30;;;;;;;3.00;2.60;;;;;;;-2.16;93.53;98653.52;107995;1261;22749;-71
2023/02/04 06:57:57;;;;;;;5.30;2.50;;;;;;;-2.14;93.52;98661.73;106660;1276;25297;-71
2023/02/04 07:00:23;;;;;;;3.90;2.80;;;;;;;-2.14;92.69;98681.93;106592;1275;139115;-71
2023/02/04 07:02:51;;;;;;;4.10;2.80;;;;;;;-2.12;92.39;98692.08;106803;1276;23929;-71
2023/02/04 07:05:19;;;;;;;6.90;2.40;;;;;;;-2.11;91.99;98710.84;107033;1261;137966;-71
2023/02/04 07:07:45;;;;;;;4.50;2.60;;;;;;;-2.09;91.81;98726.27;108230;1266;22563;-72
2023/02/04 07:10:13;;;;;;;4.30;2.50;;;;;;;-2.08;91.75;98733.46;106413;1279;23917;-71
2023/02/04 07:12:40;;;;;;;3.90;3.20;;;;;;;-2.07;91.55;98747.61;107315;1279;137864;-71
2023/02/04 07:15:08;;;;;;;4.00;3.10;;;;;;;-2.05;91.76;98758.05;107393;1281;22559;-71
2023/02/04 07:17:35;;;;;;;4.70;2.80;;;;;;;-2.03;91.33;98771.72;107031;1266;139482;-73
2023/02/04 07:20:02;;;;;;;3.90;3.00;;;;;;;-2.03;90.87;98782.40;107211;1278;22563;-71
2023/02/04 07:22:29;;;;;;;4.90;3.20;;;;;;;-2.02;91.22;98795.87;106857;1276;22558;-71
2023/02/04 07:24:56;;;;;;;8.40;2.80;;;;;;;-2.01;90.94;98810.18;106561;1281;137908;-71
2023/02/04 07:27:23;;;;;;;5.50;3.50;;;;;;;-2.01;89.88;98815.82;106578;1282;22937;-71
2023/02/04 07:29:51;;;;;;;4.80;3.00;;;;;;;-2.01;90.05;98831.30;106533;1283;137841;-71
2023/02/04 07:32:18;;;;;;;3.90;2.50;;;;;;;-2.01;89.51;98839.52;106427;1283;22573;-71
2023/02/04 07:34:46;;;;;;;3.90;3.50;;;;;;;-2.00;89.88;98847.38;106820;1275;25166;-71
2023/02/04 07:37:14;;;;;;;4.70;3.50;;;;;;;-1.98;89.63;98865.56;106531;1270;138311;-71
2023/02/04 07:39:41;;;;;;;4.70;2.90;;;;;;;-1.98;89.35;98871.52;106706;1269;23138;-71
2023/02/04 07:42:08;;;;;;;4.30;3.10;;;;;;;-1.94;89.13;98886.86;106313;1281;139221;-71
2023/02/04 07:44:42;;;;;;;5.20;3.10;;;;;;;-1.91;88.45;98896.37;106683;1281;24256;-71
2023/02/04 07:47:09;;;;;;;3.90;3.00;;;;;;;-1.89;87.74;98905.55;106570;1266;138169;-71
2023/02/04 07:49:35;;;;;;;4.50;3.20;;;;;;;-1.86;87.91;98916.83;106563;1284;22542;-71
2023/02/04 07:52:03;;;;;;;5.10;3.00;;;;;;;-1.82;88.59;98922.44;106461;1284;22527;-71
2023/02/04 07:54:30;;;;;;;3.70;2.80;;;;;;;-1.76;87.82;98929.68;106495;1280;137856;-71
2023/02/04 07:56:56;;;;;;;3.90;2.90;;;;;;;-1.74;87.23;98939.95;106424;1282;24214;-71
2023/02/04 07:59:24;;;;;;;4.50;2.80;;;;;;;-1.70;86.80;98945.27;106468;1283;138430;-71
2023/02/04 08:01:51;;;;;;;3.90;2.60;;;;;;;-1.65;86.81;98947.86;106474;1284;25400;-71
2023/02/04 08:04:18;;;;;;;4.70;2.80;;;;;;;-1.65;86.19;98962.64;106454;1284;22610;-71
2023/02/04 08:06:45;;;;;;;7.40;3.00;;;;;;;-1.69;85.87;98964.95;106330;1261;138262;-71
2023/02/04 08:09:12;;;;;;;4.10;2.70;;;;;;;-1.68;85.72;98974.84;106596;1283;25301;-71
2023/02/04 08:11:39;;;;;;;4.80;2.80;;;;;;;-1.66;84.77;98985.65;106536;1282;138356;-71
2023/02/04 08:14:06;;;;;;;5.00;2.90;;;;;;;-1.64;84.59;98988.09;106585;1283;24330;-72
2023/02/04 08:16:33;;;;;;;4.60;2.70;;;;;;;-1.59;84.51;98994.20;107173;1273;22566;-71
2023/02/04 08:19:00;;;;;;;3.10;2.50;;;;;;;-1.49;84.30;98998.05;107972;1271;140136;-72
2023/02/04 08:21:27;;;;;;;4.10;3.10;;;;;;;-1.39;84.15;99006.66;106737;1276;22529;-72
2023/02/04 08:23:54;;;;;;;4.90;2.80;;;;;;;-1.32;84.32;99018.70;106379;1279;138112;-72
2023/02/04 08:26:21;;;;;;;4.70;2.60;;;;;;;-1.26;83.12;99016.92;106533;1280;22536;-72
2023/02/04 08:28:48;;;;;;;4.00;3.20;;;;;;;-1.20;82.57;99024.91;106652;1261;22644;-72
2023/02/04 08:31:15;;;;;;;4.10;2.90;;;;;;;-1.19;82.12;99027.05;107021;1279;139919;-72
2023/02/04 08:33:43;;;;;;;5.20;3.00;;;;;;;-1.21;80.99;99038.83;106644;1277;23448;-72
2023/02/04 08:36:10;;;;;;;4.30;2.90;;;;;;;-1.24;80.78;99045.63;106503;1280;138395;-72
2023/02/04 08:38:37;;;;;;;4.60;2.40;;;;;;;-1.25;81.26;99047.09;106578;1276;22520;-72
2023/02/04 08:41:04;;;;;;;6.70;3.40;;;;;;;-1.24;80.79;99056.94;106398;1280;138216;-72
2023/02/04 08:43:31;;;;;;;4.90;3.10;;;;;;;-1.23;80.77;99061.89;106849;1282;22551;-72
2023/02/04 08:45:58;;;;;;;6.50;3.30;;;;;;;-1.25;81.08;99072.00;107353;1276;23028;-72
2023/02/04 08:48:25;;;;;;;4.60;2.80;;;;;;;-1.28;80.46;99074.50;107043;1276;138241;-72
2023/02/04 08:50:52;;;;;;;5.80;3.40;;;;;;;-1.31;80.67;99074.58;106819;1277;22540;-72
2023/02/04 08:53:19;;;;;;;3.50;2.40;;;;;;;-1.35;80.04;99087.43;107007;1280;138370;-72
2023/02/04 08:55:46;;;;;;;5.20;3.30;;;;;;;-1.40;80.57;99093.22;107170;1280;22540;-72
2023/02/04 08:58:13;;;;;;;7.60;3.40;;;;;;;-1.39;80.55;99103.00;107241;1267;25409;-72
2023/02/04 09:00:41;;;;;;;5.40;3.30;;;;;;;-1.33;80.57;99113.04;106700;1277;137865;-72
2023/02/04 09:03:09;;;;;;;4.20;3.00;;;;;;;-1.19;80.58;99116.98;106973;1275;26084;-72
2023/02/04 09:05:36;;;;;;;5.20;3.50;;;;;;;-1.01;81.13;99124.88;107099;1277;138605;-72
2023/02/04 09:08:03;;;;;;;4.00;2.80;;;;;;;-0.87;80.78;99133.23;106576;1276;22561;-72
2023/02/04 09:10:30;;;;;;;4.80;3.00;;;;;;;-0.72;80.62;99135.16;106748;1277;22550;-72
2023/02/04 09:12:57;;;;;;;5.90;3.30;;;;;;;-0.59;80.06;99144.13;108112;1276;138465;-72
2023/02/04 09:15:24;;;;;;;5.40;3.30;;;;;;;-0.54;78.97;99152.54;107043;1277;25441;-72
2023/02/04 09:17:54;;;;;;;5.30;3.50;;;;;;;-0.52;79.07;99155.37;106533;1277;138291;-72
2023/02/04 09:20:23;;;;;;;5.60;3.10;;;;;;;-0.50;79.34;99161.08;106536;1264;22538;-72
2023/02/04 09:22:50;;;;;;;4.90;3.20;;;;;;;-0.47;78.94;99164.84;107536;1276;22552;-72
2023/02/04 09:25:17;;;;;;;6.10;3.50;;;;;;;-0.45;78.62;99164.19;106763;1266;138497;-72
2023/02/04 09:27:44;;;;;;;5.70;3.70;;;;;;;-0.54;77.95;99170.06;106796;1260;22564;-72
2023/02/04 09:30:12;;;;;;;8.70;3.80;;;;;;;-0.60;78.33;99178.12;106924;1264;140025;-71
2023/02/04 09:32:40;;;;;;;5.50;3.60;;;;;;;-0.58;77.94;99182.88;107303;1273;25398;-72
2023/02/04 09:35:07;;;;;;;6.10;4.00;;;;;;;-0.55;78.15;99192.40;106593;1281;139252;-72
2023/02/04 09:37:34;;;;;;;6.50;3.50;;;;;;;-0.46;78.70;99188.50;107495;1279;22394;-73
2023/02/04 09:40:01;;;;;;;6.20;3.80;;;;;;;-0.27;78.35;99194.40;107247;1264;22597;-72
2023/02/04 09:42:28;;;;;;;6.90;4.30;;;;;;;-0.06;77.84;99194.17;106411;1276;138059;-72
2023/02/04 09:44:56;;;;;;;5.50;4.10;;;;;;;0.18;77.87;99201.02;106705;1275;23415;-72
2023/02/04 09:47:25;;;;;;;5.50;3.70;;;;;;;0.30;75.96;99201.95;106579;1276;139295;-72
2023/02/04 09:49:52;;;;;;;6.50;4.00;;;;;;;0.34;76.14;99205.45;106567;1267;22782;-72
2023/02/04 09:52:20;;;;;;;8.00;4.50;;;;;;;0.32;76.46;99217.29;106564;1281;24187;-71
2023/02/04 09:54:47;;;;;;;5.40;3.90;;;;;;;0.16;75.72;99220.50;106415;1280;140018;-71
2023/02/04 09:57:17;;;;;;;7.50;3.70;;;;;;;0.01;76.56;99221.02;106526;1281;23457;-71
2023/02/04 09:59:44;;;;;;;6.60;4.30;;;;;;;-0.10;77.03;99230.65;106352;1276;138654;-71
2023/02/04 10:02:25;;;;;;;5.10;3.70;;;;;;;-0.17;77.20;99228.42;106518;1273;25142;-72
2023/02/04 10:04:56;;;;;;;9.90;4.60;;;;;;;-0.15;76.98;99230.45;107823;1276;23278;-72
2023/02/04 10:07:24;;;;;;;7.90;4.50;;;;;;;-0.13;77.24;99238.98;106988;1276;139468;-72
2023/02/04 10:09:53;;;;;;;9.00;4.90;;;;;;;-0.23;77.41;99242.88;107196;1269;23004;-72
2023/02/04 10:12:20;;;;;;;7.30;5.30;;;;;;;-0.36;77.66;99244.21;106654;1276;138606;-72
2023/02/04 10:14:48;;;;;;;8.80;5.50;;;;;;;-0.49;78.04;99240.56;107001;1276;23393;-72
2023/02/04 10:17:20;;;;;;;6.10;4.10;;;;;;;-0.56;78.29;99245.86;106602;1273;139411;-72
2023/02/04 10:19:48;;;;;;;6.50;4.80;;;;;;;-0.64;77.75;99241.31;106838;1277;24190;-71
2023/02/04 10:22:21;;;;;;;6.70;4.90;;;;;;;-0.73;77.79;99244.85;106771;1275;22642;-72
2023/02/04 10:24:48;;;;;;;6.40;4.50;;;;;;;-0.82;77.54;99246.86;106738;1275;138056;-72
2023/02/04 10:27:15;;;;;;;4.00;3.20;;;;;;;-0.81;77.12;99250.05;106285;1280;26291;-72
2023/02/04 10:29:53;;;;;;;3.80;2.30;;;;;;;-0.79;75.13;99262.74;106309;1258;138558;-72
2023/02/04 10:32:30;;;;;;;5.10;3.10;;;;;;;-0.77;74.55;99263.77;106834;1276;22537;-72
2023/02/04 10:35:01;;;;;;;5.50;3.40;;;;;;;-0.71;73.58;99269.66;106611;1281;24281;-72
2023/02/04 10:37:30;;;;;;;6.10;3.50;;;;;;;-0.67;74.17;99272.25;106649;1276;22658;-72
2023/02/04 10:39:57;;;;;;;5.20;3.70;;;;;;;-0.61;73.42;99277.58;106411;1261;22536;-72
2023/02/04 10:42:27;;;;;;;4.90;3.50;;;;;;;-0.54;73.99;99282.53;106168;1283;140574;-72
2023/02/04 10:44:54;;;;;;;5.70;3.10;;;;;;;-0.58;72.06;99282.94;106600;1278;23432;-72
2023/02/04 10:47:29;;;;;;;3.70;2.30;;;;;;;-0.55;72.28;99288.91;106942;1278;138574;-73
2023/02/04 10:50:05;;;;;;;7.00;3.20;;;;;;;-0.53;71.96;99297.79;106629;1259;21895;-73
2023/02/04 10:52:38;;;;;;;6.30;3.20;;;;;;;-0.48;72.05;99304.66;106596;1280;24248;-73
2023/02/04 10:55:12;;;;;;;8.60;3.50;;;;;;;-0.44;71.25;99309.41;106904;1282;137978;-72
2023/02/04 10:57:41;;;;;;;5.10;2.90;;;;;;;-0.42;71.12;99313.41;106744;1276;24277;-72
2023/02/04 11:00:17;;;;;;;6.00;3.40;;;;;;;-0.28;71.73;99316.55;106274;1264;139024;-73
2023/02/04 11:03:09;;;;;;;6.70;3.40;;;;;;;-0.05;70.46;99319.58;106808;1280;24540;-73
2023/02/04 11:05:37;;;;;;;5.40;2.90;;;;;;;0.43;69.25;99319.50;106163;1284;138695;-73
2023/02/04 11:08:23;;;;;;;4.50;2.80;;;;;;;0.58;67.64;99327.05;106308;1284;23910;-74
2023/02/04 11:11:07;;;;;;;5.30;2.70;;;;;;;0.29;65.83;99325.74;106282;1268;22564;-73
2023/02/04 11:13:58;;;;;;;3.70;2.30;;;;;;;-0.03;66.43;99325.42;106595;1281;24216;-74
2023/02/04 11:16:34;;;;;;;4.80;1.80;;;;;;;0.01;66.46;99327.92;106836;1280;22544;-74
2023/02/04 11:19:09;;;;;;;3.40;2.30;;;;;;;0.14;66.31;99331.37;106918;1273;137474;-74
2023/02/04 11:21:36;;;;;;;4.20;2.60;;;;;;;-0.08;66.63;99329.20;106636;1276;22535;-74
2023/02/04 11:24:13;;;;;;;4.70;2.60;;;;;;;-0.31;67.16;99334.88;107287;1278;137812;-75
2023/02/04 11:26:44;;;;;;;4.60;2.50;;;;;;;-0.35;67.19;99341.50;106595;1276;23938;-74